createdAt,value
2022-12-08T00:00:02.676Z,1011.3
2022-12-08T00:01:02.702Z,1011.3
2022-12-08T00:02:02.560Z,1011.3
2022-12-08T00:03:03.238Z,1011.3
2022-12-08T00:04:02.042Z,1011.3
2022-12-08T00:05:03.320Z,1011.3
2022-12-08T00:06:02.122Z,1011.3
2022-12-08T00:07:02.134Z,1011.3
2022-12-08T00:08:02.302Z,1011.4
2022-12-08T00:09:02.214Z,1011.3
2022-12-08T00:10:49.262Z,1011.3
2022-12-08T00:11:02.602Z,1011.3
2022-12-08T00:12:02.429Z,1011.3
2022-12-08T00:13:02.479Z,1011.3
2022-12-08T00:14:02.453Z,1011.2
2022-12-08T00:15:03.572Z,1011.3
2022-12-08T00:16:02.450Z,1011.3
2022-12-08T00:17:02.673Z,1011.3
2022-12-08T00:18:02.588Z,1011.3
2022-12-08T00:19:02.449Z,1011.3
2022-12-08T00:20:02.485Z,1011.3
2022-12-08T00:21:02.398Z,1011.4
2022-12-08T00:22:02.299Z,1011.3
2022-12-08T00:23:02.327Z,1011.4
2022-12-08T00:24:02.121Z,1011.4
2022-12-08T00:25:03.477Z,1011.4
2022-12-08T00:26:02.428Z,1011.4
2022-12-08T00:27:02.303Z,1011.4
2022-12-08T00:28:02.300Z,1011.4
2022-12-08T00:29:02.243Z,1011.4
2022-12-08T00:30:02.118Z,1011.4
2022-12-08T00:31:02.156Z,1011.4
2022-12-08T00:32:02.430Z,1011.5
2022-12-08T00:33:02.238Z,1011.5
2022-12-08T00:34:02.155Z,1011.5
2022-12-08T00:35:03.614Z,1011.5
2022-12-08T00:36:02.564Z,1011.4
2022-12-08T00:37:02.607Z,1011.5
2022-12-08T00:38:02.477Z,1011.5
2022-12-08T00:39:02.484Z,1011.5
2022-12-08T00:40:03.791Z,1011.5
2022-12-08T00:41:02.640Z,1011.5
2022-12-08T00:42:02.722Z,1011.5
2022-12-08T00:43:02.558Z,1011.5
2022-12-08T00:44:02.586Z,1011.5
2022-12-08T00:45:02.418Z,1011.5
2022-12-08T00:46:02.763Z,1011.5
2022-12-08T00:47:02.570Z,1011.5
2022-12-08T00:48:02.431Z,1011.6
2022-12-08T00:49:02.430Z,1011.5
2022-12-08T00:50:03.990Z,1011.5
2022-12-08T00:51:01.964Z,1011.5
2022-12-08T00:52:01.985Z,1011.6
2022-12-08T00:53:01.867Z,1011.6
2022-12-08T00:54:01.996Z,1011.6
2022-12-08T00:55:01.826Z,1011.6
2022-12-08T00:56:01.843Z,1011.7
2022-12-08T00:57:01.686Z,1011.6
2022-12-08T00:58:02.722Z,1011.7
2022-12-08T00:59:02.571Z,1011.7
2022-12-08T01:00:04.067Z,1011.7
2022-12-08T01:01:02.201Z,1011.7
2022-12-08T01:02:02.323Z,1011.7
2022-12-08T01:03:02.658Z,1011.7
2022-12-08T01:04:02.493Z,1011.7
2022-12-08T01:05:02.352Z,1011.7
2022-12-08T01:06:02.413Z,1011.7
2022-12-08T01:07:02.341Z,1011.7
2022-12-08T01:08:02.412Z,1011.7
2022-12-08T01:09:02.303Z,1011.7
2022-12-08T01:10:03.378Z,1011.7
2022-12-08T01:11:02.243Z,1011.7
2022-12-08T01:12:02.267Z,1011.7
2022-12-08T01:13:02.096Z,1011.7
2022-12-08T01:14:02.160Z,1011.8
2022-12-08T01:15:03.408Z,1011.8
2022-12-08T01:16:02.110Z,1011.8
2022-12-08T01:17:02.122Z,1011.8
2022-12-08T01:18:02.170Z,1011.8
2022-12-08T01:19:01.978Z,1011.8
2022-12-08T01:20:03.508Z,1011.9
2022-12-08T01:21:02.481Z,1011.9
2022-12-08T01:22:02.342Z,1011.8
2022-12-08T01:23:02.450Z,1011.8
2022-12-08T01:24:02.325Z,1011.8
2022-12-08T01:25:02.152Z,1011.8
2022-12-08T01:26:02.200Z,1011.8
2022-12-08T01:27:02.085Z,1011.8
2022-12-08T01:28:02.290Z,1011.8
2022-12-08T01:29:02.065Z,1011.8
2022-12-08T01:30:03.820Z,1011.8
2022-12-08T01:31:02.124Z,1011.8
2022-12-08T01:32:02.209Z,1011.8
2022-12-08T01:33:02.253Z,1011.8
2022-12-08T01:34:02.102Z,1011.8
2022-12-08T01:35:02.160Z,1011.8
2022-12-08T01:36:01.917Z,1011.8
2022-12-08T01:37:01.938Z,1011.8
2022-12-08T01:38:01.776Z,1011.8
2022-12-08T01:39:02.194Z,1011.8
2022-12-08T01:40:03.539Z,1011.8
2022-12-08T01:41:02.496Z,1011.7
2022-12-08T01:42:02.557Z,1011.8
2022-12-08T01:43:02.395Z,1011.8
2022-12-08T01:44:02.431Z,1011.8
2022-12-08T01:45:02.365Z,1011.7
2022-12-08T01:46:02.435Z,1011.7
2022-12-08T01:47:02.123Z,1011.7
2022-12-08T01:48:02.348Z,1011.7
2022-12-08T01:49:02.096Z,1011.7
2022-12-08T01:50:03.774Z,1011.7
2022-12-08T01:51:02.662Z,1011.7
2022-12-08T01:52:02.504Z,1011.8
2022-12-08T01:53:02.535Z,1011.7
2022-12-08T01:54:02.354Z,1011.7
2022-12-08T01:55:02.445Z,1011.6
2022-12-08T01:56:02.339Z,1011.7
2022-12-08T01:57:02.189Z,1011.7
2022-12-08T01:58:02.230Z,1011.7
2022-12-08T01:59:02.033Z,1011.7
2022-12-08T02:00:03.818Z,1011.7
2022-12-08T02:01:01.905Z,1011.7
2022-12-08T02:02:02.261Z,1011.7
2022-12-08T02:03:02.426Z,1011.7
2022-12-08T02:04:02.254Z,1011.7
2022-12-08T02:05:02.034Z,1011.6
2022-12-08T02:06:02.107Z,1011.7
2022-12-08T02:07:08.592Z,1011.7
2022-12-08T02:08:02.485Z,1011.7
2022-12-08T02:09:02.301Z,1011.7
2022-12-08T02:10:03.399Z,1011.7
2022-12-08T02:11:02.341Z,1011.6
2022-12-08T02:12:02.393Z,1011.6
2022-12-08T02:13:02.334Z,1011.7
2022-12-08T02:14:02.151Z,1011.6
2022-12-08T02:15:06.009Z,1011.6
2022-12-08T02:16:01.995Z,1011.7
2022-12-08T02:17:02.200Z,1011.7
2022-12-08T02:18:02.284Z,1011.7
2022-12-08T02:19:32.136Z,1011.7
2022-12-08T02:20:03.427Z,1011.7
2022-12-08T02:21:02.384Z,1011.5
2022-12-08T02:22:02.329Z,1011.6
2022-12-08T02:23:02.188Z,1011.6
2022-12-08T02:24:02.232Z,1011.6
2022-12-08T02:25:02.024Z,1011.6
2022-12-08T02:26:02.123Z,1011.6
2022-12-08T02:27:02.035Z,1011.6
2022-12-08T02:28:02.093Z,1011.6
2022-12-08T02:29:01.958Z,1011.6
2022-12-08T02:30:03.471Z,1011.5
2022-12-08T02:31:02.765Z,1011.6
2022-12-08T02:32:01.696Z,1011.6
2022-12-08T02:33:01.793Z,1011.6
2022-12-08T02:34:02.750Z,1011.6
2022-12-08T02:35:02.665Z,1011.6
2022-12-08T02:36:02.678Z,1011.5
2022-12-08T02:37:02.491Z,1011.5
2022-12-08T02:38:02.551Z,1011.5
2022-12-08T02:39:02.366Z,1011.5
2022-12-08T02:40:04.234Z,1011.5
2022-12-08T02:41:02.053Z,1011.5
2022-12-08T02:42:02.115Z,1011.5
2022-12-08T02:43:01.979Z,1011.5
2022-12-08T02:44:02.113Z,1011.5
2022-12-08T02:45:01.965Z,1011.5
2022-12-08T02:46:02.294Z,1011.5
2022-12-08T02:47:02.023Z,1011.5
2022-12-08T02:48:02.031Z,1011.5
2022-12-08T02:49:01.920Z,1011.4
2022-12-08T02:50:03.356Z,1011.5
2022-12-08T02:51:02.563Z,1011.4
2022-12-08T02:52:02.281Z,1011.5
2022-12-08T02:53:02.265Z,1011.5
2022-12-08T02:54:02.261Z,1011.6
2022-12-08T02:55:02.122Z,1011.5
2022-12-08T02:56:02.160Z,1011.5
2022-12-08T02:57:02.107Z,1011.6
2022-12-08T02:58:02.164Z,1011.6
2022-12-08T02:59:02.004Z,1011.6
2022-12-08T03:00:04.043Z,1011.6
2022-12-08T03:01:02.363Z,1011.6
2022-12-08T03:02:02.447Z,1011.7
2022-12-08T03:03:02.544Z,1011.6
2022-12-08T03:04:02.440Z,1011.6
2022-12-08T03:05:02.247Z,1011.5
2022-12-08T03:06:02.308Z,1011.6
2022-12-08T03:07:02.306Z,1011.6
2022-12-08T03:08:02.393Z,1011.5
2022-12-08T03:09:02.232Z,1011.6
2022-12-08T03:10:03.643Z,1011.6
2022-12-08T03:11:02.512Z,1011.6
2022-12-08T03:12:02.700Z,1011.6
2022-12-08T03:13:02.551Z,1011.6
2022-12-08T03:14:02.540Z,1011.6
2022-12-08T03:15:02.376Z,1011.5
2022-12-08T03:16:02.713Z,1011.6
2022-12-08T03:17:02.555Z,1011.6
2022-12-08T03:18:02.390Z,1011.6
2022-12-08T03:19:02.445Z,1011.6
2022-12-08T03:20:03.835Z,1011.5
2022-12-08T03:21:01.738Z,1011.6
2022-12-08T03:22:01.854Z,1011.6
2022-12-08T03:23:01.776Z,1011.7
2022-12-08T03:24:01.801Z,1011.6
2022-12-08T03:25:02.728Z,1011.7
2022-12-08T03:26:02.959Z,1011.6
2022-12-08T03:27:01.822Z,1011.5
2022-12-08T03:28:01.765Z,1011.5
2022-12-08T03:29:01.854Z,1011.6
2022-12-08T03:30:02.861Z,1011.6
2022-12-08T03:31:01.949Z,1011.6
2022-12-08T03:32:01.806Z,1011.6
2022-12-08T03:33:01.846Z,1011.6
2022-12-08T03:34:01.755Z,1011.5
2022-12-08T03:35:01.832Z,1011.6
2022-12-08T03:36:01.730Z,1011.6
2022-12-08T03:37:01.799Z,1011.5
2022-12-08T03:38:02.760Z,1011.6
2022-12-08T03:39:02.612Z,1011.5
2022-12-08T03:40:04.176Z,1011.5
2022-12-08T03:41:02.075Z,1011.6
2022-12-08T03:42:02.115Z,1011.5
2022-12-08T03:43:02.069Z,1011.5
2022-12-08T03:44:01.896Z,1011.5
2022-12-08T03:45:01.775Z,1011.5
2022-12-08T03:46:02.081Z,1011.5
2022-12-08T03:47:01.758Z,1011.4
2022-12-08T03:48:01.786Z,1011.5
2022-12-08T03:49:02.762Z,1011.5
2022-12-08T03:50:03.925Z,1011.5
2022-12-08T03:51:01.697Z,1011.4
2022-12-08T03:52:01.851Z,1011.5
2022-12-08T03:53:01.729Z,1011.5
2022-12-08T03:54:01.747Z,1011.5
2022-12-08T03:55:01.752Z,1011.4
2022-12-08T03:56:01.734Z,1011.5
2022-12-08T03:57:01.685Z,1011.4
2022-12-08T03:58:02.671Z,1011.5
2022-12-08T03:59:02.614Z,1011.5
2022-12-08T04:00:04.249Z,1011.5
2022-12-08T04:01:02.137Z,1011.5
2022-12-08T04:02:02.491Z,1011.5
2022-12-08T04:03:02.512Z,1011.5
2022-12-08T04:04:02.328Z,1011.5
2022-12-08T04:05:02.178Z,1011.6
2022-12-08T04:06:02.185Z,1011.5
2022-12-08T04:07:02.106Z,1011.5
2022-12-08T04:08:02.346Z,1011.5
2022-12-08T04:09:02.025Z,1011.5
2022-12-08T04:10:03.401Z,1011.5
2022-12-08T04:11:02.309Z,1011.6
2022-12-08T04:12:02.225Z,1011.5
2022-12-08T04:13:02.264Z,1011.5
2022-12-08T04:14:02.007Z,1011.5
2022-12-08T04:15:02.005Z,1011.5
2022-12-08T04:16:02.130Z,1011.5
2022-12-08T04:17:02.373Z,1011.5
2022-12-08T04:18:02.358Z,1011.5
2022-12-08T04:19:02.305Z,1011.5
2022-12-08T04:20:03.578Z,1011.5
2022-12-08T04:21:02.500Z,1011.5
2022-12-08T04:22:02.456Z,1011.5
2022-12-08T04:23:02.705Z,1011.5
2022-12-08T04:24:02.126Z,1011.5
2022-12-08T04:25:01.851Z,1011.5
2022-12-08T04:26:01.729Z,1011.5
2022-12-08T04:27:01.730Z,1011.5
2022-12-08T04:28:02.671Z,1011.5
2022-12-08T04:29:02.581Z,1011.5
2022-12-08T04:30:04.141Z,1011.5
2022-12-08T04:31:02.270Z,1011.5
2022-12-08T04:32:02.316Z,1011.5
2022-12-08T04:33:02.266Z,1011.5
2022-12-08T04:34:02.229Z,1011.5
2022-12-08T04:35:02.188Z,1011.5
2022-12-08T04:36:02.141Z,1011.4
2022-12-08T04:37:02.038Z,1011.5
2022-12-08T04:38:01.999Z,1011.5
2022-12-08T04:39:01.953Z,1011.4
2022-12-08T04:40:02.879Z,1011.4
2022-12-08T04:41:01.886Z,1011.4
2022-12-08T04:42:01.837Z,1011.4
2022-12-08T04:43:01.757Z,1011.3
2022-12-08T04:44:01.747Z,1011.4
2022-12-08T04:45:02.671Z,1011.4
2022-12-08T04:46:02.592Z,1011.4
2022-12-08T04:47:02.600Z,1011.4
2022-12-08T04:48:02.430Z,1011.4
2022-12-08T04:49:02.289Z,1011.4
2022-12-08T04:50:03.615Z,1011.5
2022-12-08T04:51:02.537Z,1011.4
2022-12-08T04:52:02.522Z,1011.3
2022-12-08T04:53:02.363Z,1011.3
2022-12-08T04:54:02.343Z,1011.4
2022-12-08T04:55:02.292Z,1011.4
2022-12-08T04:56:02.354Z,1011.4
2022-12-08T04:57:02.234Z,1011.3
2022-12-08T04:58:02.163Z,1011.4
2022-12-08T04:59:02.083Z,1011.4
2022-12-08T05:00:03.427Z,1011.4
2022-12-08T05:01:02.624Z,1011.4
2022-12-08T05:02:02.591Z,1011.3
2022-12-08T05:03:02.660Z,1011.4
2022-12-08T05:04:02.471Z,1011.4
2022-12-08T05:05:02.389Z,1011.4
2022-12-08T05:06:02.391Z,1011.4
2022-12-08T05:07:02.357Z,1011.3
2022-12-08T05:08:02.633Z,1011.3
2022-12-08T05:09:02.416Z,1011.4
2022-12-08T05:10:03.710Z,1011.4
2022-12-08T05:11:02.564Z,1011.4
2022-12-08T05:12:02.575Z,1011.4
2022-12-08T05:13:02.446Z,1011.3
2022-12-08T05:14:02.436Z,1011.4
2022-12-08T05:15:02.337Z,1011.4
2022-12-08T05:16:02.461Z,1011.4
2022-12-08T05:17:10.169Z,1011.3
2022-12-08T05:18:01.824Z,1011.4
2022-12-08T05:19:02.006Z,1011.3
2022-12-08T05:20:03.407Z,1011.4
2022-12-08T05:21:02.257Z,1011.3
2022-12-08T05:22:02.195Z,1011.4
2022-12-08T05:23:02.128Z,1011.3
2022-12-08T05:24:02.049Z,1011.3
2022-12-08T05:25:02.005Z,1011.4
2022-12-08T05:26:02.060Z,1011.4
2022-12-08T05:27:01.980Z,1011.3
2022-12-08T05:28:42.885Z,1011.3
2022-12-08T05:29:01.724Z,1011.3
2022-12-08T05:30:02.890Z,1011.3
2022-12-08T05:31:01.700Z,1011.3
2022-12-08T05:32:02.870Z,1011.3
2022-12-08T05:33:02.638Z,1011.3
2022-12-08T05:34:04.017Z,1011.3
2022-12-08T05:35:01.698Z,1011.3
2022-12-08T05:36:02.699Z,1011.3
2022-12-08T05:37:02.622Z,1011.3
2022-12-08T05:38:02.582Z,1011.3
2022-12-08T05:39:02.510Z,1011.3
2022-12-08T05:40:04.003Z,1011.4
2022-12-08T05:41:01.848Z,1011.3
2022-12-08T05:42:02.043Z,1011.3
2022-12-08T05:43:01.947Z,1011.3
2022-12-08T05:44:01.879Z,1011.3
2022-12-08T05:45:01.788Z,1011.3
2022-12-08T05:46:01.943Z,1011.3
2022-12-08T05:47:01.839Z,1011.3
2022-12-08T05:48:01.808Z,1011.3
2022-12-08T05:49:01.758Z,1011.3
2022-12-08T05:50:03.180Z,1011.3
2022-12-08T05:51:02.117Z,1011.4
2022-12-08T05:52:02.073Z,1011.4
2022-12-08T05:53:01.941Z,1011.4
2022-12-08T05:54:01.921Z,1011.4
2022-12-08T05:55:01.838Z,1011.4
2022-12-08T05:56:01.772Z,1011.4
2022-12-08T05:57:01.700Z,1011.4
2022-12-08T05:58:08.480Z,1011.4
2022-12-08T05:59:02.194Z,1011.4
2022-12-08T06:00:03.587Z,1011.4
2022-12-08T06:01:02.506Z,1011.5
2022-12-08T06:02:02.414Z,1011.5
2022-12-08T06:03:02.851Z,1011.5
2022-12-08T06:04:02.690Z,1011.4
2022-12-08T06:05:02.538Z,1011.5
2022-12-08T06:06:02.581Z,1011.4
2022-12-08T06:07:02.450Z,1011.4
2022-12-08T06:08:02.791Z,1011.4
2022-12-08T06:09:02.693Z,1011.3
2022-12-08T06:10:03.883Z,1011.4
2022-12-08T06:11:01.766Z,1011.3
2022-12-08T06:12:01.879Z,1011.4
2022-12-08T06:13:01.824Z,1011.4
2022-12-08T06:14:01.824Z,1011.4
2022-12-08T06:15:01.800Z,1011.4
2022-12-08T06:16:01.757Z,1011.4
2022-12-08T06:17:02.438Z,1011.5
2022-12-08T06:18:02.162Z,1011.5
2022-12-08T06:19:02.183Z,1011.4
2022-12-08T06:20:03.344Z,1011.4
2022-12-08T06:21:02.283Z,1011.4
2022-12-08T06:22:02.313Z,1011.5
2022-12-08T06:23:02.308Z,1011.5
2022-12-08T06:24:02.119Z,1011.5
2022-12-08T06:25:10.423Z,1011.5
2022-12-08T06:26:02.557Z,1011.5
2022-12-08T06:27:02.320Z,1011.5
2022-12-08T06:28:02.290Z,1011.5
2022-12-08T06:29:02.110Z,1011.6
2022-12-08T06:30:03.494Z,1011.5
2022-12-08T06:31:02.492Z,1011.5
2022-12-08T06:32:02.081Z,1011.6
2022-12-08T06:33:01.926Z,1011.6
2022-12-08T06:34:01.794Z,1011.6
2022-12-08T06:35:01.781Z,1011.6
2022-12-08T06:36:01.745Z,1011.7
2022-12-08T06:37:01.855Z,1011.7
2022-12-08T06:38:01.726Z,1011.7
2022-12-08T06:39:02.760Z,1011.7
2022-12-08T06:40:03.865Z,1011.7
2022-12-08T06:41:01.781Z,1011.8
2022-12-08T06:42:01.812Z,1011.7
2022-12-08T06:43:02.776Z,1011.7
2022-12-08T06:44:02.617Z,1011.8
2022-12-08T06:45:02.667Z,1011.8
2022-12-08T06:46:02.721Z,1011.8
2022-12-08T06:47:01.884Z,1011.7
2022-12-08T06:48:01.926Z,1011.8
2022-12-08T06:49:01.823Z,1011.8
2022-12-08T06:50:03.047Z,1011.8
2022-12-08T06:51:02.021Z,1011.8
2022-12-08T06:52:02.090Z,1011.8
2022-12-08T06:53:06.169Z,1011.8
2022-12-08T06:54:01.863Z,1011.8
2022-12-08T06:55:01.948Z,1011.9
2022-12-08T06:56:01.861Z,1011.8
2022-12-08T06:57:01.832Z,1011.8
2022-12-08T06:58:01.670Z,1011.9
2022-12-08T06:59:01.764Z,1011.8
2022-12-08T07:00:04.303Z,1011.9
2022-12-08T07:01:02.442Z,1011.8
2022-12-08T07:02:02.000Z,1011.8
2022-12-08T07:03:02.122Z,1011.8
2022-12-08T07:04:01.827Z,1011.8
2022-12-08T07:05:01.828Z,1011.8
2022-12-08T07:06:05.046Z,1011.8
2022-12-08T07:07:01.724Z,1011.9
2022-12-08T07:08:01.977Z,1011.8
2022-12-08T07:09:01.722Z,1011.8
2022-12-08T07:10:02.688Z,1011.9
2022-12-08T07:11:02.779Z,1011.8
2022-12-08T07:12:02.256Z,1011.9
2022-12-08T07:13:02.280Z,1011.8
2022-12-08T07:14:02.101Z,1012
2022-12-08T07:15:02.168Z,1011.9
2022-12-08T07:16:01.995Z,1011.9
2022-12-08T07:17:02.446Z,1011.8
2022-12-08T07:18:02.331Z,1011.9
2022-12-08T07:19:02.275Z,1011.9
2022-12-08T07:20:03.663Z,1011.8
2022-12-08T07:21:02.629Z,1011.8
2022-12-08T07:22:02.666Z,1011.8
2022-12-08T07:23:02.545Z,1011.8
2022-12-08T07:24:02.580Z,1011.7
2022-12-08T07:25:02.340Z,1011.7
2022-12-08T07:26:02.421Z,1011.7
2022-12-08T07:27:02.348Z,1011.7
2022-12-08T07:28:02.200Z,1011.8
2022-12-08T07:29:02.108Z,1011.8
2022-12-08T07:30:02.997Z,1011.8
2022-12-08T07:31:02.019Z,1011.8
2022-12-08T07:32:02.148Z,1011.7
2022-12-08T07:33:02.118Z,1011.8
2022-12-08T07:34:02.090Z,1011.8
2022-12-08T07:35:02.015Z,1011.8
2022-12-08T07:36:01.885Z,1011.8
2022-12-08T07:37:01.843Z,1011.8
2022-12-08T07:38:01.702Z,1011.8
2022-12-08T07:39:02.767Z,1011.7
2022-12-08T07:40:03.984Z,1011.8
2022-12-08T07:41:01.801Z,1011.8
2022-12-08T07:42:01.884Z,1011.8
2022-12-08T07:43:01.749Z,1011.8
2022-12-08T07:44:01.805Z,1011.8
2022-12-08T07:45:01.746Z,1011.8
2022-12-08T07:46:02.112Z,1011.8
2022-12-08T07:47:02.700Z,1011.8
2022-12-08T07:48:02.500Z,1011.7
2022-12-08T07:49:02.543Z,1011.8
2022-12-08T07:50:03.410Z,1011.8
2022-12-08T07:51:02.480Z,1011.8
2022-12-08T07:52:02.472Z,1011.9
2022-12-08T07:53:02.462Z,1011.8
2022-12-08T07:54:02.269Z,1011.7
2022-12-08T07:55:02.283Z,1011.8
2022-12-08T07:56:02.236Z,1011.8
2022-12-08T07:57:02.068Z,1011.8
2022-12-08T07:58:02.029Z,1011.9
2022-12-08T07:59:01.937Z,1011.9
2022-12-08T08:00:03.294Z,1011.8
2022-12-08T08:01:02.941Z,1011.8
2022-12-08T08:02:26.422Z,1011.9
2022-12-08T08:03:02.487Z,1011.8
2022-12-08T08:04:02.448Z,1011.8
2022-12-08T08:05:02.590Z,1011.8
2022-12-08T08:06:02.341Z,1011.9
2022-12-08T08:07:02.373Z,1011.9
2022-12-08T08:08:02.595Z,1011.9
2022-12-08T08:09:02.414Z,1011.9
2022-12-08T08:10:03.311Z,1011.9
2022-12-08T08:11:20.741Z,1011.9
2022-12-08T08:12:32.723Z,1011.8
2022-12-08T08:13:02.595Z,1011.8
2022-12-08T08:14:02.641Z,1011.9
2022-12-08T08:15:02.507Z,1011.8
2022-12-08T08:16:02.918Z,1011.8
2022-12-08T08:17:02.308Z,1011.8
2022-12-08T08:18:02.236Z,1011.8
2022-12-08T08:19:02.112Z,1011.8
2022-12-08T08:20:03.482Z,1011.8
2022-12-08T08:21:46.030Z,1011.7
2022-12-08T08:22:01.970Z,1011.8
2022-12-08T08:23:01.964Z,1011.8
2022-12-08T08:24:01.918Z,1011.8
2022-12-08T08:25:02.149Z,1011.8
2022-12-08T08:26:01.930Z,1011.8
2022-12-08T08:27:01.933Z,1011.8
2022-12-08T08:28:01.785Z,1011.7
2022-12-08T08:29:01.765Z,1011.8
2022-12-08T08:30:04.767Z,1011.8
2022-12-08T08:31:02.876Z,1011.8
2022-12-08T08:32:01.715Z,1011.7
2022-12-08T08:33:01.831Z,1011.8
2022-12-08T08:34:01.694Z,1011.8
2022-12-08T08:35:02.788Z,1011.8
2022-12-08T08:36:02.597Z,1011.8
2022-12-08T08:37:02.973Z,1011.8
2022-12-08T08:38:01.718Z,1011.8
2022-12-08T08:39:01.815Z,1011.8
2022-12-08T08:40:02.585Z,1011.8
2022-12-08T08:41:02.420Z,1011.8
2022-12-08T08:42:02.413Z,1011.8
2022-12-08T08:43:02.277Z,1011.8
2022-12-08T08:44:02.109Z,1011.8
2022-12-08T08:45:02.128Z,1011.7
2022-12-08T08:46:02.294Z,1011.8
2022-12-08T08:47:01.993Z,1011.7
2022-12-08T08:48:02.009Z,1011.7
2022-12-08T08:49:01.918Z,1011.8
2022-12-08T08:50:02.978Z,1011.8
2022-12-08T08:51:01.822Z,1011.7
2022-12-08T08:52:01.936Z,1011.7
2022-12-08T08:53:01.838Z,1011.8
2022-12-08T08:54:01.923Z,1011.8
2022-12-08T08:55:01.828Z,1011.8
2022-12-08T08:56:03.470Z,1011.7
2022-12-08T08:57:02.288Z,1011.7
2022-12-08T08:58:02.118Z,1011.8
2022-12-08T08:59:02.243Z,1011.8
2022-12-08T09:00:03.487Z,1011.7
2022-12-08T09:01:02.353Z,1011.7
2022-12-08T09:02:02.333Z,1011.6
2022-12-08T09:03:02.201Z,1011.7
2022-12-08T09:04:02.476Z,1011.7
2022-12-08T09:05:02.577Z,1011.7
2022-12-08T09:06:02.655Z,1011.7
2022-12-08T09:07:02.476Z,1011.7
2022-12-08T09:08:02.657Z,1011.7
2022-12-08T09:09:02.461Z,1011.6
2022-12-08T09:10:03.391Z,1011.7
2022-12-08T09:11:02.361Z,1011.7
2022-12-08T09:12:02.395Z,1011.7
2022-12-08T09:13:02.390Z,1011.7
2022-12-08T09:14:02.237Z,1011.7
2022-12-08T09:15:02.264Z,1011.8
2022-12-08T09:16:02.445Z,1011.7
2022-12-08T09:17:02.164Z,1011.7
2022-12-08T09:18:02.212Z,1011.6
2022-12-08T09:19:02.232Z,1011.6
2022-12-08T09:20:03.493Z,1011.6
2022-12-08T09:21:02.525Z,1011.6
2022-12-08T09:22:02.461Z,1011.6
2022-12-08T09:23:02.275Z,1011.7
2022-12-08T09:24:02.309Z,1011.6
2022-12-08T09:25:02.298Z,1011.6
2022-12-08T09:26:02.248Z,1011.6
2022-12-08T09:27:02.260Z,1011.6
2022-12-08T09:28:02.091Z,1011.6
2022-12-08T09:29:02.206Z,1011.5
2022-12-08T09:30:03.553Z,1011.5
2022-12-08T09:31:02.715Z,1011.5
2022-12-08T09:32:02.240Z,1011.5
2022-12-08T09:33:02.291Z,1011.5
2022-12-08T09:34:02.245Z,1011.5
2022-12-08T09:35:02.090Z,1011.5
2022-12-08T09:36:02.132Z,1011.4
2022-12-08T09:37:01.961Z,1011.4
2022-12-08T09:38:01.969Z,1011.5
2022-12-08T09:39:01.772Z,1011.4
2022-12-08T09:40:02.625Z,1011.4
2022-12-08T09:41:02.759Z,1011.3
2022-12-08T09:42:02.584Z,1011.4
2022-12-08T09:43:02.521Z,1011.3
2022-12-08T09:44:02.404Z,1011.3
2022-12-08T09:45:02.369Z,1011.2
2022-12-08T09:46:02.584Z,1011.3
2022-12-08T09:47:02.481Z,1011.3
2022-12-08T09:48:02.347Z,1011.3
2022-12-08T09:49:02.299Z,1011.2
2022-12-08T09:50:03.816Z,1011.2
2022-12-08T09:51:02.672Z,1011.2
2022-12-08T09:52:02.640Z,1011.3
2022-12-08T09:53:02.830Z,1011.2
2022-12-08T09:54:02.660Z,1011.2
2022-12-08T09:55:02.504Z,1011.3
2022-12-08T09:56:02.557Z,1011.4
2022-12-08T09:57:02.386Z,1011.3
2022-12-08T09:58:02.321Z,1011.3
2022-12-08T09:59:02.334Z,1011.3
2022-12-08T10:00:03.428Z,1011.3
2022-12-08T10:01:02.788Z,1011.3
2022-12-08T10:02:02.329Z,1011.2
2022-12-08T10:03:02.062Z,1011.2
2022-12-08T10:04:02.218Z,1011.3
2022-12-08T10:05:02.458Z,1011.3
2022-12-08T10:06:02.204Z,1011.2
2022-12-08T10:07:02.290Z,1011.2
2022-12-08T10:08:02.544Z,1011.2
2022-12-08T10:09:02.326Z,1011.4
2022-12-08T10:10:03.736Z,1011.3
2022-12-08T10:11:02.742Z,1011.3
2022-12-08T10:12:02.655Z,1011.3
2022-12-08T10:13:03.050Z,1011.2
2022-12-08T10:14:01.727Z,1011.3
2022-12-08T10:15:01.839Z,1011.3
2022-12-08T10:16:02.878Z,1011.2
2022-12-08T10:17:02.803Z,1011.2
2022-12-08T10:18:02.655Z,1011.2
2022-12-08T10:19:02.498Z,1011.2
2022-12-08T10:20:04.073Z,1011.2
2022-12-08T10:21:01.886Z,1011.3
2022-12-08T10:22:01.984Z,1011.1
2022-12-08T10:23:01.764Z,1011.1
2022-12-08T10:24:01.863Z,1011.2
2022-12-08T10:25:01.755Z,1011.2
2022-12-08T10:26:02.761Z,1011.1
2022-12-08T10:27:02.589Z,1011.2
2022-12-08T10:28:02.600Z,1011.1
2022-12-08T10:29:02.424Z,1011.1
2022-12-08T10:30:03.591Z,1011.1
2022-12-08T10:31:02.929Z,1011.1
2022-12-08T10:32:02.700Z,1011.1
2022-12-08T10:33:02.509Z,1011.1
2022-12-08T10:34:02.390Z,1011.1
2022-12-08T10:35:02.441Z,1011.1
2022-12-08T10:36:02.410Z,1011
2022-12-08T10:37:02.222Z,1011
2022-12-08T10:38:02.287Z,1011.1
2022-12-08T10:39:02.287Z,1011
2022-12-08T10:40:03.177Z,1011.1
2022-12-08T10:41:02.403Z,1011
2022-12-08T10:42:02.342Z,1010.9
2022-12-08T10:43:02.206Z,1011
2022-12-08T10:44:02.343Z,1010.9
2022-12-08T10:45:02.398Z,1011
2022-12-08T10:46:02.204Z,1011
2022-12-08T10:47:03.047Z,1011
2022-12-08T10:48:01.781Z,1011.1
2022-12-08T10:49:01.768Z,1010.9
2022-12-08T10:50:03.273Z,1011
2022-12-08T10:51:02.309Z,1011
2022-12-08T10:52:02.213Z,1011
2022-12-08T10:53:02.161Z,1011
2022-12-08T10:54:02.075Z,1011
2022-12-08T10:55:02.023Z,1011
2022-12-08T10:56:02.146Z,1011.1
2022-12-08T10:57:02.075Z,1011
2022-12-08T10:58:01.970Z,1010.9
2022-12-08T10:59:01.859Z,1011
2022-12-08T11:00:02.787Z,1011
2022-12-08T11:01:03.044Z,1010.9
2022-12-08T11:02:02.252Z,1010.9
2022-12-08T11:03:02.331Z,1011
2022-12-08T11:04:02.145Z,1010.9
2022-12-08T11:05:02.053Z,1011
2022-12-08T11:06:11.358Z,1010.9
2022-12-08T11:07:02.084Z,1011
2022-12-08T11:08:02.292Z,1010.9
2022-12-08T11:09:02.040Z,1010.9
2022-12-08T11:10:03.318Z,1010.9
2022-12-08T11:11:02.288Z,1010.9
2022-12-08T11:12:02.258Z,1011
2022-12-08T11:13:02.142Z,1010.8
2022-12-08T11:14:01.999Z,1010.9
2022-12-08T11:15:01.925Z,1011
2022-12-08T11:16:01.993Z,1011
2022-12-08T11:17:02.135Z,1011.1
2022-12-08T11:18:01.853Z,1010.9
2022-12-08T11:19:01.814Z,1011
2022-12-08T11:20:02.517Z,1010.9
2022-12-08T11:21:02.471Z,1011
2022-12-08T11:22:02.411Z,1011.1
2022-12-08T11:23:02.332Z,1011
2022-12-08T11:24:02.255Z,1011
2022-12-08T11:25:02.198Z,1010.9
2022-12-08T11:26:02.220Z,1010.9
2022-12-08T11:27:02.194Z,1010.9
2022-12-08T11:28:02.218Z,1010.9
2022-12-08T11:29:02.142Z,1010.9
2022-12-08T11:30:03.258Z,1010.9
2022-12-08T11:31:02.374Z,1011
2022-12-08T11:32:02.277Z,1011
2022-12-08T11:33:02.065Z,1010.9
2022-12-08T11:34:02.081Z,1010.9
2022-12-08T11:35:02.076Z,1010.9
2022-12-08T11:36:02.050Z,1010.9
2022-12-08T11:37:01.982Z,1010.9
2022-12-08T11:38:22.860Z,1011
2022-12-08T11:39:01.756Z,1011
2022-12-08T11:40:02.247Z,1010.9
2022-12-08T11:41:02.071Z,1010.9
2022-12-08T11:42:02.036Z,1010.9
2022-12-08T11:43:01.982Z,1010.9
2022-12-08T11:44:01.916Z,1011
2022-12-08T11:45:02.334Z,1010.9
2022-12-08T11:46:02.297Z,1010.9
2022-12-08T11:47:01.716Z,1010.8
2022-12-08T11:48:01.688Z,1010.8
2022-12-08T11:49:07.551Z,1010.9
2022-12-08T11:50:03.614Z,1010.9
2022-12-08T11:51:02.665Z,1011
2022-12-08T11:52:02.675Z,1010.9
2022-12-08T11:53:02.616Z,1010.9
2022-12-08T11:54:02.524Z,1010.9
2022-12-08T11:55:02.469Z,1010.8
2022-12-08T11:56:02.412Z,1010.9
2022-12-08T11:57:02.350Z,1010.8
2022-12-08T11:58:02.577Z,1010.8
2022-12-08T11:59:02.275Z,1010.9
2022-12-08T12:00:03.056Z,1010.9
2022-12-08T12:01:01.924Z,1010.9
2022-12-08T12:02:02.188Z,1010.9
2022-12-08T12:03:02.080Z,1010.8
2022-12-08T12:04:01.885Z,1010.9
2022-12-08T12:05:01.812Z,1010.9
2022-12-08T12:06:55.278Z,1010.8
2022-12-08T12:07:02.162Z,1010.9
2022-12-08T12:08:02.396Z,1010.8
2022-12-08T12:09:02.153Z,1010.8
2022-12-08T12:10:03.296Z,1010.8
2022-12-08T12:11:02.306Z,1010.8
2022-12-08T12:12:02.247Z,1010.9
2022-12-08T12:13:02.252Z,1010.9
2022-12-08T12:14:02.174Z,1010.9
2022-12-08T12:15:02.237Z,1010.8
2022-12-08T12:16:02.178Z,1010.8
2022-12-08T12:17:02.496Z,1010.8
2022-12-08T12:18:02.257Z,1010.8
2022-12-08T12:19:02.216Z,1010.8
2022-12-08T12:20:03.299Z,1010.8
2022-12-08T12:21:02.314Z,1010.7
2022-12-08T12:22:02.229Z,1010.7
2022-12-08T12:23:02.331Z,1010.9
2022-12-08T12:24:02.244Z,1010.7
2022-12-08T12:25:02.105Z,1010.8
2022-12-08T12:26:01.984Z,1010.7
2022-12-08T12:27:01.882Z,1010.9
2022-12-08T12:28:01.831Z,1010.8
2022-12-08T12:29:01.752Z,1010.8
2022-12-08T12:30:01.731Z,1010.8